sensor_id;sensor_type;location;lat;lon;timestamp;P1;durP1;ratioP1;P2;durP2;ratioP2
44169;SDS011;29836;52.286;9.576;2023-12-29T00:00:02;7.90;;;1.25;;
44169;SDS011;29836;52.286;9.576;2023-12-29T00:02:28;3.33;;;1.10;;
44169;SDS011;29836;52.286;9.576;2023-12-29T00:04:54;1.90;;;0.70;;
44169;SDS011;29836;52.286;9.576;2023-12-29T00:07:19;2.33;;;1.05;;
44169;SDS011;29836;52.286;9.576;2023-12-29T00:09:46;4.88;;;1.08;;
44169;SDS011;29836;52.286;9.576;2023-12-29T00:12:11;3.42;;;1.05;;
44169;SDS011;29836;52.286;9.576;2023-12-29T00:14:38;6.15;;;1.38;;
44169;SDS011;29836;52.286;9.576;2023-12-29T00:17:04;2.95;;;0.85;;
44169;SDS011;29836;52.286;9.576;2023-12-29T00:19:30;4.05;;;1.00;;
44169;SDS011;29836;52.286;9.576;2023-12-29T00:21:55;3.08;;;1.02;;
44169;SDS011;29836;52.286;9.576;2023-12-29T00:24:21;3.53;;;1.13;;
44169;SDS011;29836;52.286;9.576;2023-12-29T00:26:46;10.63;;;1.10;;
44169;SDS011;29836;52.286;9.576;2023-12-29T00:29:13;3.78;;;1.25;;
44169;SDS011;29836;52.286;9.576;2023-12-29T00:31:40;2.08;;;1.13;;
44169;SDS011;29836;52.286;9.576;2023-12-29T00:34:06;2.50;;;0.80;;
44169;SDS011;29836;52.286;9.576;2023-12-29T00:36:32;3.15;;;0.73;;
44169;SDS011;29836;52.286;9.576;2023-12-29T00:38:57;3.45;;;0.80;;
44169;SDS011;29836;52.286;9.576;2023-12-29T00:41:23;3.60;;;0.82;;
44169;SDS011;29836;52.286;9.576;2023-12-29T00:43:48;6.65;;;1.08;;
44169;SDS011;29836;52.286;9.576;2023-12-29T00:46:14;2.65;;;0.95;;
44169;SDS011;29836;52.286;9.576;2023-12-29T00:48:43;8.02;;;1.15;;
44169;SDS011;29836;52.286;9.576;2023-12-29T00:51:08;3.00;;;1.00;;
44169;SDS011;29836;52.286;9.576;2023-12-29T00:53:36;7.05;;;0.95;;
44169;SDS011;29836;52.286;9.576;2023-12-29T00:56:02;5.95;;;1.30;;
44169;SDS011;29836;52.286;9.576;2023-12-29T00:58:28;4.35;;;1.02;;
44169;SDS011;29836;52.286;9.576;2023-12-29T01:00:54;5.22;;;1.27;;
44169;SDS011;29836;52.286;9.576;2023-12-29T01:03:20;6.45;;;1.10;;
44169;SDS011;29836;52.286;9.576;2023-12-29T01:05:46;3.17;;;1.20;;
44169;SDS011;29836;52.286;9.576;2023-12-29T01:08:11;4.40;;;1.13;;
44169;SDS011;29836;52.286;9.576;2023-12-29T01:10:37;3.35;;;1.02;;
44169;SDS011;29836;52.286;9.576;2023-12-29T01:13:02;3.67;;;1.20;;
44169;SDS011;29836;52.286;9.576;2023-12-29T01:15:28;2.97;;;1.00;;
44169;SDS011;29836;52.286;9.576;2023-12-29T01:17:54;3.95;;;1.23;;
44169;SDS011;29836;52.286;9.576;2023-12-29T01:20:19;3.95;;;1.10;;
44169;SDS011;29836;52.286;9.576;2023-12-29T01:22:45;5.25;;;1.27;;
44169;SDS011;29836;52.286;9.576;2023-12-29T01:25:10;3.90;;;0.98;;
44169;SDS011;29836;52.286;9.576;2023-12-29T01:27:36;4.72;;;0.90;;
44169;SDS011;29836;52.286;9.576;2023-12-29T01:30:01;5.45;;;1.30;;
44169;SDS011;29836;52.286;9.576;2023-12-29T01:32:27;3.75;;;1.38;;
44169;SDS011;29836;52.286;9.576;2023-12-29T01:34:53;4.28;;;1.00;;
44169;SDS011;29836;52.286;9.576;2023-12-29T01:37:18;2.78;;;0.85;;
44169;SDS011;29836;52.286;9.576;2023-12-29T01:39:44;4.15;;;0.98;;
44169;SDS011;29836;52.286;9.576;2023-12-29T01:42:09;2.38;;;0.75;;
44169;SDS011;29836;52.286;9.576;2023-12-29T01:44:36;3.53;;;1.08;;
44169;SDS011;29836;52.286;9.576;2023-12-29T01:47:02;4.80;;;1.45;;
44169;SDS011;29836;52.286;9.576;2023-12-29T01:49:35;4.35;;;1.13;;
44169;SDS011;29836;52.286;9.576;2023-12-29T01:52:01;7.45;;;1.25;;
44169;SDS011;29836;52.286;9.576;2023-12-29T01:54:29;2.80;;;1.00;;
44169;SDS011;29836;52.286;9.576;2023-12-29T01:56:58;3.75;;;0.80;;
44169;SDS011;29836;52.286;9.576;2023-12-29T01:59:25;3.03;;;1.00;;
44169;SDS011;29836;52.286;9.576;2023-12-29T02:01:53;5.97;;;1.13;;
44169;SDS011;29836;52.286;9.576;2023-12-29T02:04:20;7.15;;;1.13;;
44169;SDS011;29836;52.286;9.576;2023-12-29T02:06:51;6.25;;;1.08;;
44169;SDS011;29836;52.286;9.576;2023-12-29T02:09:17;2.25;;;0.85;;
44169;SDS011;29836;52.286;9.576;2023-12-29T02:11:44;9.82;;;1.05;;
44169;SDS011;29836;52.286;9.576;2023-12-29T02:14:10;4.45;;;0.98;;
44169;SDS011;29836;52.286;9.576;2023-12-29T02:16:46;6.00;;;1.23;;
44169;SDS011;29836;52.286;9.576;2023-12-29T02:19:25;3.55;;;1.30;;
44169;SDS011;29836;52.286;9.576;2023-12-29T02:22:02;2.58;;;0.93;;
44169;SDS011;29836;52.286;9.576;2023-12-29T02:24:28;4.13;;;1.05;;
44169;SDS011;29836;52.286;9.576;2023-12-29T02:26:57;8.00;;;1.05;;
44169;SDS011;29836;52.286;9.576;2023-12-29T02:29:27;4.43;;;1.10;;
44169;SDS011;29836;52.286;9.576;2023-12-29T02:31:57;4.88;;;1.10;;
44169;SDS011;29836;52.286;9.576;2023-12-29T02:34:24;3.80;;;0.95;;
44169;SDS011;29836;52.286;9.576;2023-12-29T02:36:52;2.80;;;0.80;;
44169;SDS011;29836;52.286;9.576;2023-12-29T02:39:19;4.20;;;0.93;;
44169;SDS011;29836;52.286;9.576;2023-12-29T02:41:45;6.70;;;0.95;;
44169;SDS011;29836;52.286;9.576;2023-12-29T02:44:11;5.32;;;0.95;;
44169;SDS011;29836;52.286;9.576;2023-12-29T02:46:37;4.20;;;0.80;;
44169;SDS011;29836;52.286;9.576;2023-12-29T02:49:02;2.75;;;0.90;;
44169;SDS011;29836;52.286;9.576;2023-12-29T02:51:28;2.97;;;0.82;;
44169;SDS011;29836;52.286;9.576;2023-12-29T02:53:53;2.50;;;0.90;;
44169;SDS011;29836;52.286;9.576;2023-12-29T02:56:19;5.18;;;0.90;;
44169;SDS011;29836;52.286;9.576;2023-12-29T02:58:44;2.22;;;0.88;;
44169;SDS011;29836;52.286;9.576;2023-12-29T03:01:11;2.75;;;0.88;;
44169;SDS011;29836;52.286;9.576;2023-12-29T03:03:36;3.67;;;0.70;;
44169;SDS011;29836;52.286;9.576;2023-12-29T03:06:04;2.17;;;0.80;;
44169;SDS011;29836;52.286;9.576;2023-12-29T03:08:30;10.18;;;0.80;;
44169;SDS011;29836;52.286;9.576;2023-12-29T03:10:57;1.75;;;0.90;;
44169;SDS011;29836;52.286;9.576;2023-12-29T03:13:23;1.48;;;0.70;;
44169;SDS011;29836;52.286;9.576;2023-12-29T03:15:48;2.90;;;0.98;;
44169;SDS011;29836;52.286;9.576;2023-12-29T03:18:14;2.55;;;0.80;;
44169;SDS011;29836;52.286;9.576;2023-12-29T03:20:39;2.65;;;0.80;;
44169;SDS011;29836;52.286;9.576;2023-12-29T03:23:05;1.67;;;0.70;;
44169;SDS011;29836;52.286;9.576;2023-12-29T03:25:30;2.40;;;0.80;;
44169;SDS011;29836;52.286;9.576;2023-12-29T03:27:56;1.88;;;0.68;;
44169;SDS011;29836;52.286;9.576;2023-12-29T03:30:21;2.85;;;0.90;;
44169;SDS011;29836;52.286;9.576;2023-12-29T03:32:47;1.90;;;0.82;;
44169;SDS011;29836;52.286;9.576;2023-12-29T03:35:12;3.70;;;0.90;;
44169;SDS011;29836;52.286;9.576;2023-12-29T03:37:38;1.27;;;0.47;;
44169;SDS011;29836;52.286;9.576;2023-12-29T03:40:03;5.28;;;0.90;;
44169;SDS011;29836;52.286;9.576;2023-12-29T03:42:29;1.85;;;0.57;;
44169;SDS011;29836;52.286;9.576;2023-12-29T03:44:55;1.20;;;0.60;;
44169;SDS011;29836;52.286;9.576;2023-12-29T03:47:20;2.05;;;0.47;;
44169;SDS011;29836;52.286;9.576;2023-12-29T03:49:46;3.20;;;0.77;;
44169;SDS011;29836;52.286;9.576;2023-12-29T03:52:11;1.58;;;0.60;;
44169;SDS011;29836;52.286;9.576;2023-12-29T03:54:37;1.55;;;0.77;;
44169;SDS011;29836;52.286;9.576;2023-12-29T03:57:02;5.38;;;0.98;;
44169;SDS011;29836;52.286;9.576;2023-12-29T03:59:28;2.33;;;0.73;;
44169;SDS011;29836;52.286;9.576;2023-12-29T04:01:54;3.20;;;0.70;;
44169;SDS011;29836;52.286;9.576;2023-12-29T04:04:19;2.80;;;0.65;;
44169;SDS011;29836;52.286;9.576;2023-12-29T04:06:45;3.80;;;0.50;;
44169;SDS011;29836;52.286;9.576;2023-12-29T04:09:10;1.90;;;0.60;;
44169;SDS011;29836;52.286;9.576;2023-12-29T04:11:36;3.15;;;0.55;;
44169;SDS011;29836;52.286;9.576;2023-12-29T04:14:01;1.40;;;0.60;;
44169;SDS011;29836;52.286;9.576;2023-12-29T04:16:27;5.13;;;0.80;;
44169;SDS011;29836;52.286;9.576;2023-12-29T04:18:52;2.58;;;0.68;;
44169;SDS011;29836;52.286;9.576;2023-12-29T04:21:18;3.20;;;0.75;;
44169;SDS011;29836;52.286;9.576;2023-12-29T04:23:43;2.92;;;0.65;;
44169;SDS011;29836;52.286;9.576;2023-12-29T04:26:09;1.85;;;0.60;;
44169;SDS011;29836;52.286;9.576;2023-12-29T04:28:35;1.48;;;0.80;;
44169;SDS011;29836;52.286;9.576;2023-12-29T04:31:00;6.97;;;1.10;;
44169;SDS011;29836;52.286;9.576;2023-12-29T04:33:26;2.72;;;0.70;;
44169;SDS011;29836;52.286;9.576;2023-12-29T04:35:51;2.42;;;0.80;;
44169;SDS011;29836;52.286;9.576;2023-12-29T04:38:17;1.13;;;0.60;;
44169;SDS011;29836;52.286;9.576;2023-12-29T04:40:45;3.78;;;0.80;;
44169;SDS011;29836;52.286;9.576;2023-12-29T04:43:12;1.83;;;0.70;;
44169;SDS011;29836;52.286;9.576;2023-12-29T04:45:38;1.23;;;0.60;;
44169;SDS011;29836;52.286;9.576;2023-12-29T04:48:03;1.00;;;0.63;;
44169;SDS011;29836;52.286;9.576;2023-12-29T04:50:29;2.55;;;0.70;;
44169;SDS011;29836;52.286;9.576;2023-12-29T04:52:54;3.38;;;0.80;;
44169;SDS011;29836;52.286;9.576;2023-12-29T04:55:20;2.88;;;0.80;;
44169;SDS011;29836;52.286;9.576;2023-12-29T04:57:45;1.35;;;0.60;;
44169;SDS011;29836;52.286;9.576;2023-12-29T05:00:11;2.17;;;0.70;;
44169;SDS011;29836;52.286;9.576;2023-12-29T05:02:37;8.23;;;0.88;;
44169;SDS011;29836;52.286;9.576;2023-12-29T05:05:03;4.15;;;0.70;;
44169;SDS011;29836;52.286;9.576;2023-12-29T05:07:29;2.65;;;0.90;;
44169;SDS011;29836;52.286;9.576;2023-12-29T05:09:56;3.40;;;1.10;;
44169;SDS011;29836;52.286;9.576;2023-12-29T05:12:21;3.05;;;1.00;;
44169;SDS011;29836;52.286;9.576;2023-12-29T05:14:47;3.28;;;0.85;;
44169;SDS011;29836;52.286;9.576;2023-12-29T05:17:12;2.28;;;0.90;;
44169;SDS011;29836;52.286;9.576;2023-12-29T05:19:38;4.22;;;1.38;;
44169;SDS011;29836;52.286;9.576;2023-12-29T05:22:03;2.33;;;1.02;;
44169;SDS011;29836;52.286;9.576;2023-12-29T05:24:29;1.52;;;0.70;;
44169;SDS011;29836;52.286;9.576;2023-12-29T05:26:54;3.20;;;0.98;;
44169;SDS011;29836;52.286;9.576;2023-12-29T05:29:20;4.85;;;1.00;;
44169;SDS011;29836;52.286;9.576;2023-12-29T05:31:45;6.32;;;1.13;;
44169;SDS011;29836;52.286;9.576;2023-12-29T05:34:11;2.60;;;0.93;;
44169;SDS011;29836;52.286;9.576;2023-12-29T05:36:36;3.45;;;0.77;;
44169;SDS011;29836;52.286;9.576;2023-12-29T05:39:02;5.07;;;1.00;;
44169;SDS011;29836;52.286;9.576;2023-12-29T05:41:28;5.85;;;1.20;;
44169;SDS011;29836;52.286;9.576;2023-12-29T05:43:54;7.03;;;1.08;;
44169;SDS011;29836;52.286;9.576;2023-12-29T05:46:21;2.42;;;0.98;;
44169;SDS011;29836;52.286;9.576;2023-12-29T05:48:47;6.53;;;1.10;;
44169;SDS011;29836;52.286;9.576;2023-12-29T05:51:13;2.28;;;1.10;;
44169;SDS011;29836;52.286;9.576;2023-12-29T05:53:39;3.50;;;1.10;;
44169;SDS011;29836;52.286;9.576;2023-12-29T05:56:05;3.05;;;1.08;;
44169;SDS011;29836;52.286;9.576;2023-12-29T05:58:31;3.58;;;1.27;;
44169;SDS011;29836;52.286;9.576;2023-12-29T06:00:56;4.93;;;1.45;;
44169;SDS011;29836;52.286;9.576;2023-12-29T06:03:23;4.85;;;1.45;;
44169;SDS011;29836;52.286;9.576;2023-12-29T06:05:49;5.50;;;1.30;;
44169;SDS011;29836;52.286;9.576;2023-12-29T06:08:15;6.50;;;1.70;;
44169;SDS011;29836;52.286;9.576;2023-12-29T06:10:40;4.43;;;1.42;;
44169;SDS011;29836;52.286;9.576;2023-12-29T06:13:06;3.65;;;1.48;;
44169;SDS011;29836;52.286;9.576;2023-12-29T06:15:31;4.97;;;1.52;;
44169;SDS011;29836;52.286;9.576;2023-12-29T06:17:57;3.42;;;1.10;;
44169;SDS011;29836;52.286;9.576;2023-12-29T06:20:23;3.83;;;1.27;;
44169;SDS011;29836;52.286;9.576;2023-12-29T06:22:49;9.45;;;1.85;;
44169;SDS011;29836;52.286;9.576;2023-12-29T06:25:14;7.00;;;1.73;;
44169;SDS011;29836;52.286;9.576;2023-12-29T06:27:40;5.45;;;1.90;;
44169;SDS011;29836;52.286;9.576;2023-12-29T06:30:06;9.93;;;1.77;;
44169;SDS011;29836;52.286;9.576;2023-12-29T06:32:32;5.75;;;1.50;;
44169;SDS011;29836;52.286;9.576;2023-12-29T06:34:58;6.35;;;1.23;;
44169;SDS011;29836;52.286;9.576;2023-12-29T06:37:24;7.28;;;1.80;;
44169;SDS011;29836;52.286;9.576;2023-12-29T06:39:49;7.00;;;1.60;;
44169;SDS011;29836;52.286;9.576;2023-12-29T06:42:15;5.20;;;1.70;;
44169;SDS011;29836;52.286;9.576;2023-12-29T06:44:40;3.45;;;1.30;;
44169;SDS011;29836;52.286;9.576;2023-12-29T06:47:06;4.40;;;1.75;;
44169;SDS011;29836;52.286;9.576;2023-12-29T06:49:34;5.63;;;1.55;;
44169;SDS011;29836;52.286;9.576;2023-12-29T06:51:59;4.70;;;1.27;;
44169;SDS011;29836;52.286;9.576;2023-12-29T06:54:25;6.25;;;1.10;;
44169;SDS011;29836;52.286;9.576;2023-12-29T06:56:50;4.80;;;1.55;;
44169;SDS011;29836;52.286;9.576;2023-12-29T06:59:16;4.75;;;1.30;;
44169;SDS011;29836;52.286;9.576;2023-12-29T07:01:43;2.45;;;1.27;;
44169;SDS011;29836;52.286;9.576;2023-12-29T07:04:09;7.05;;;1.30;;
44169;SDS011;29836;52.286;9.576;2023-12-29T07:06:35;4.00;;;1.40;;
44169;SDS011;29836;52.286;9.576;2023-12-29T07:09:01;5.10;;;1.38;;
44169;SDS011;29836;52.286;9.576;2023-12-29T07:11:27;5.28;;;1.73;;
44169;SDS011;29836;52.286;9.576;2023-12-29T07:13:53;7.70;;;1.38;;
44169;SDS011;29836;52.286;9.576;2023-12-29T07:16:19;5.68;;;1.33;;
44169;SDS011;29836;52.286;9.576;2023-12-29T07:18:45;3.92;;;1.50;;
44169;SDS011;29836;52.286;9.576;2023-12-29T07:21:11;9.05;;;1.85;;
44169;SDS011;29836;52.286;9.576;2023-12-29T07:23:37;6.95;;;1.50;;
44169;SDS011;29836;52.286;9.576;2023-12-29T07:26:03;6.38;;;1.23;;
44169;SDS011;29836;52.286;9.576;2023-12-29T07:28:29;5.07;;;1.40;;
44169;SDS011;29836;52.286;9.576;2023-12-29T07:30:56;9.38;;;1.52;;
44169;SDS011;29836;52.286;9.576;2023-12-29T07:33:22;7.72;;;1.60;;
44169;SDS011;29836;52.286;9.576;2023-12-29T07:35:48;4.30;;;1.60;;
44169;SDS011;29836;52.286;9.576;2023-12-29T07:38:14;7.22;;;1.33;;
44169;SDS011;29836;52.286;9.576;2023-12-29T07:40:40;7.38;;;1.42;;
44169;SDS011;29836;52.286;9.576;2023-12-29T07:43:06;5.85;;;1.60;;
44169;SDS011;29836;52.286;9.576;2023-12-29T07:45:31;5.75;;;1.50;;
44169;SDS011;29836;52.286;9.576;2023-12-29T07:47:57;4.18;;;1.00;;
44169;SDS011;29836;52.286;9.576;2023-12-29T07:50:22;5.22;;;1.10;;
44169;SDS011;29836;52.286;9.576;2023-12-29T07:52:48;5.93;;;1.48;;
44169;SDS011;29836;52.286;9.576;2023-12-29T07:55:13;6.43;;;1.30;;
44169;SDS011;29836;52.286;9.576;2023-12-29T07:57:41;4.28;;;1.58;;
44169;SDS011;29836;52.286;9.576;2023-12-29T08:00:08;6.50;;;1.73;;
44169;SDS011;29836;52.286;9.576;2023-12-29T08:02:34;7.95;;;1.70;;
44169;SDS011;29836;52.286;9.576;2023-12-29T08:05:00;5.65;;;1.33;;
44169;SDS011;29836;52.286;9.576;2023-12-29T08:07:26;8.27;;;1.40;;
44169;SDS011;29836;52.286;9.576;2023-12-29T08:09:52;5.05;;;1.35;;
44169;SDS011;29836;52.286;9.576;2023-12-29T08:12:17;7.57;;;1.40;;
44169;SDS011;29836;52.286;9.576;2023-12-29T08:14:43;3.67;;;1.35;;
44169;SDS011;29836;52.286;9.576;2023-12-29T08:17:08;6.55;;;1.48;;
44169;SDS011;29836;52.286;9.576;2023-12-29T08:19:34;9.63;;;1.42;;
44169;SDS011;29836;52.286;9.576;2023-12-29T08:22:00;4.75;;;1.52;;
44169;SDS011;29836;52.286;9.576;2023-12-29T08:24:25;8.95;;;1.67;;
44169;SDS011;29836;52.286;9.576;2023-12-29T08:26:51;5.78;;;1.38;;
44169;SDS011;29836;52.286;9.576;2023-12-29T08:29:17;6.85;;;1.55;;
44169;SDS011;29836;52.286;9.576;2023-12-29T08:31:44;6.85;;;1.42;;
44169;SDS011;29836;52.286;9.576;2023-12-29T08:34:10;4.85;;;1.50;;
44169;SDS011;29836;52.286;9.576;2023-12-29T08:36:36;4.22;;;1.40;;
44169;SDS011;29836;52.286;9.576;2023-12-29T08:39:02;6.70;;;1.40;;
44169;SDS011;29836;52.286;9.576;2023-12-29T08:41:27;6.55;;;1.35;;
44169;SDS011;29836;52.286;9.576;2023-12-29T08:43:53;5.93;;;1.52;;
44169;SDS011;29836;52.286;9.576;2023-12-29T08:46:18;8.07;;;1.80;;
44169;SDS011;29836;52.286;9.576;2023-12-29T08:48:44;8.13;;;1.23;;
44169;SDS011;29836;52.286;9.576;2023-12-29T08:51:11;6.38;;;1.60;;
44169;SDS011;29836;52.286;9.576;2023-12-29T08:53:36;2.53;;;1.15;;
44169;SDS011;29836;52.286;9.576;2023-12-29T08:56:02;7.07;;;1.17;;
44169;SDS011;29836;52.286;9.576;2023-12-29T08:58:28;6.97;;;1.10;;
44169;SDS011;29836;52.286;9.576;2023-12-29T09:00:53;4.53;;;1.27;;
44169;SDS011;29836;52.286;9.576;2023-12-29T09:03:19;8.43;;;1.50;;
44169;SDS011;29836;52.286;9.576;2023-12-29T09:05:44;6.05;;;1.45;;
44169;SDS011;29836;52.286;9.576;2023-12-29T09:08:10;3.13;;;0.98;;
44169;SDS011;29836;52.286;9.576;2023-12-29T09:10:36;9.55;;;1.45;;
44169;SDS011;29836;52.286;9.576;2023-12-29T09:13:01;8.23;;;1.38;;
44169;SDS011;29836;52.286;9.576;2023-12-29T09:15:27;3.45;;;1.08;;
44169;SDS011;29836;52.286;9.576;2023-12-29T09:17:52;4.68;;;1.38;;
44169;SDS011;29836;52.286;9.576;2023-12-29T09:20:18;5.97;;;1.30;;
44169;SDS011;29836;52.286;9.576;2023-12-29T09:22:43;6.93;;;1.35;;
44169;SDS011;29836;52.286;9.576;2023-12-29T09:25:09;8.57;;;1.27;;
44169;SDS011;29836;52.286;9.576;2023-12-29T09:27:34;5.32;;;1.20;;
44169;SDS011;29836;52.286;9.576;2023-12-29T09:30:00;7.93;;;1.25;;
44169;SDS011;29836;52.286;9.576;2023-12-29T09:32:25;10.43;;;1.60;;
44169;SDS011;29836;52.286;9.576;2023-12-29T09:34:51;3.00;;;1.17;;
44169;SDS011;29836;52.286;9.576;2023-12-29T09:37:18;6.68;;;1.35;;
44169;SDS011;29836;52.286;9.576;2023-12-29T09:39:48;5.40;;;1.30;;
44169;SDS011;29836;52.286;9.576;2023-12-29T09:42:19;4.60;;;1.10;;
44169;SDS011;29836;52.286;9.576;2023-12-29T09:44:49;4.18;;;1.30;;
44169;SDS011;29836;52.286;9.576;2023-12-29T09:47:15;2.83;;;0.98;;
44169;SDS011;29836;52.286;9.576;2023-12-29T09:49:51;2.15;;;0.80;;
44169;SDS011;29836;52.286;9.576;2023-12-29T09:52:20;6.03;;;1.10;;
44169;SDS011;29836;52.286;9.576;2023-12-29T09:54:50;2.42;;;0.75;;
44169;SDS011;29836;52.286;9.576;2023-12-29T09:57:17;5.05;;;1.10;;
44169;SDS011;29836;52.286;9.576;2023-12-29T09:59:43;5.93;;;1.35;;
44169;SDS011;29836;52.286;9.576;2023-12-29T10:02:13;4.93;;;1.00;;
44169;SDS011;29836;52.286;9.576;2023-12-29T10:04:42;3.53;;;1.05;;
44169;SDS011;29836;52.286;9.576;2023-12-29T10:07:08;3.22;;;1.10;;
44169;SDS011;29836;52.286;9.576;2023-12-29T10:09:38;2.70;;;1.20;;
44169;SDS011;29836;52.286;9.576;2023-12-29T10:12:05;5.50;;;0.77;;
44169;SDS011;29836;52.286;9.576;2023-12-29T10:14:41;4.35;;;1.00;;
44169;SDS011;29836;52.286;9.576;2023-12-29T10:17:17;6.80;;;1.35;;
44169;SDS011;29836;52.286;9.576;2023-12-29T10:20:02;3.38;;;1.02;;
44169;SDS011;29836;52.286;9.576;2023-12-29T10:22:51;4.05;;;1.08;;
44169;SDS011;29836;52.286;9.576;2023-12-29T10:25:23;4.78;;;1.20;;
44169;SDS011;29836;52.286;9.576;2023-12-29T10:27:49;3.28;;;0.98;;
44169;SDS011;29836;52.286;9.576;2023-12-29T10:30:14;2.25;;;0.90;;
44169;SDS011;29836;52.286;9.576;2023-12-29T10:32:40;4.25;;;1.15;;
44169;SDS011;29836;52.286;9.576;2023-12-29T10:35:09;2.38;;;1.00;;
44169;SDS011;29836;52.286;9.576;2023-12-29T10:37:35;1.85;;;1.20;;
44169;SDS011;29836;52.286;9.576;2023-12-29T10:40:01;2.67;;;0.80;;
44169;SDS011;29836;52.286;9.576;2023-12-29T10:42:27;2.83;;;0.88;;
44169;SDS011;29836;52.286;9.576;2023-12-29T10:45:27;4.95;;;0.90;;
44169;SDS011;29836;52.286;9.576;2023-12-29T10:47:46;2.65;;;0.80;;
44169;SDS011;29836;52.286;9.576;2023-12-29T10:50:12;4.40;;;1.45;;
44169;SDS011;29836;52.286;9.576;2023-12-29T10:52:37;3.40;;;1.08;;
44169;SDS011;29836;52.286;9.576;2023-12-29T10:57:32;1.98;;;0.85;;
44169;SDS011;29836;52.286;9.576;2023-12-29T10:59:58;5.20;;;0.90;;
44169;SDS011;29836;52.286;9.576;2023-12-29T11:02:25;3.67;;;0.75;;
44169;SDS011;29836;52.286;9.576;2023-12-29T11:04:55;8.38;;;1.20;;
44169;SDS011;29836;52.286;9.576;2023-12-29T11:07:31;2.70;;;1.13;;
44169;SDS011;29836;52.286;9.576;2023-12-29T11:10:05;2.78;;;1.00;;
44169;SDS011;29836;52.286;9.576;2023-12-29T11:12:33;4.47;;;1.00;;
44169;SDS011;29836;52.286;9.576;2023-12-29T11:15:06;2.55;;;0.80;;
44169;SDS011;29836;52.286;9.576;2023-12-29T11:17:34;1.50;;;0.80;;
44169;SDS011;29836;52.286;9.576;2023-12-29T11:20:00;4.15;;;1.00;;
44169;SDS011;29836;52.286;9.576;2023-12-29T11:22:31;1.00;;;0.68;;
44169;SDS011;29836;52.286;9.576;2023-12-29T11:24:57;2.50;;;1.00;;
44169;SDS011;29836;52.286;9.576;2023-12-29T11:27:28;1.10;;;0.80;;
44169;SDS011;29836;52.286;9.576;2023-12-29T11:29:58;1.27;;;0.77;;
44169;SDS011;29836;52.286;9.576;2023-12-29T11:35:22;5.97;;;1.20;;
44169;SDS011;29836;52.286;9.576;2023-12-29T11:38:15;3.55;;;1.00;;
44169;SDS011;29836;52.286;9.576;2023-12-29T11:40:52;2.90;;;0.90;;
44169;SDS011;29836;52.286;9.576;2023-12-29T11:43:28;2.55;;;0.80;;
44169;SDS011;29836;52.286;9.576;2023-12-29T11:45:55;4.60;;;0.68;;
44169;SDS011;29836;52.286;9.576;2023-12-29T11:54:08;0.75;;;0.57;;
44169;SDS011;29836;52.286;9.576;2023-12-29T11:56:39;2.92;;;0.95;;
44169;SDS011;29836;52.286;9.576;2023-12-29T12:01:40;0.77;;;0.70;;
44169;SDS011;29836;52.286;9.576;2023-12-29T12:07:15;2.00;;;0.70;;
44169;SDS011;29836;52.286;9.576;2023-12-29T12:09:42;2.13;;;0.80;;
44169;SDS011;29836;52.286;9.576;2023-12-29T12:12:09;2.38;;;0.63;;
44169;SDS011;29836;52.286;9.576;2023-12-29T12:14:51;2.90;;;0.80;;
44169;SDS011;29836;52.286;9.576;2023-12-29T12:17:27;1.63;;;0.68;;
44169;SDS011;29836;52.286;9.576;2023-12-29T12:19:58;1.52;;;0.75;;
44169;SDS011;29836;52.286;9.576;2023-12-29T12:22:34;2.03;;;0.80;;
44169;SDS011;29836;52.286;9.576;2023-12-29T12:25:01;1.10;;;0.60;;
44169;SDS011;29836;52.286;9.576;2023-12-29T12:27:28;1.52;;;0.68;;
44169;SDS011;29836;52.286;9.576;2023-12-29T12:29:56;1.77;;;0.88;;
44169;SDS011;29836;52.286;9.576;2023-12-29T12:32:26;1.60;;;0.85;;
44169;SDS011;29836;52.286;9.576;2023-12-29T12:34:52;1.58;;;0.90;;
44169;SDS011;29836;52.286;9.576;2023-12-29T12:37:21;1.20;;;0.85;;
44169;SDS011;29836;52.286;9.576;2023-12-29T12:39:51;2.05;;;0.70;;
44169;SDS011;29836;52.286;9.576;2023-12-29T12:42:18;2.42;;;0.80;;
44169;SDS011;29836;52.286;9.576;2023-12-29T12:44:55;2.53;;;0.85;;
44169;SDS011;29836;52.286;9.576;2023-12-29T12:47:34;0.85;;;0.73;;
44169;SDS011;29836;52.286;9.576;2023-12-29T12:50:07;1.08;;;0.70;;
44169;SDS011;29836;52.286;9.576;2023-12-29T12:52:35;2.97;;;1.45;;
44169;SDS011;29836;52.286;9.576;2023-12-29T12:55:01;2.05;;;1.10;;
44169;SDS011;29836;52.286;9.576;2023-12-29T12:57:27;0.82;;;0.60;;
44169;SDS011;29836;52.286;9.576;2023-12-29T12:59:54;1.30;;;0.73;;
44169;SDS011;29836;52.286;9.576;2023-12-29T13:02:20;1.00;;;0.70;;
44169;SDS011;29836;52.286;9.576;2023-12-29T13:04:47;1.08;;;0.93;;
44169;SDS011;29836;52.286;9.576;2023-12-29T13:07:17;1.00;;;0.75;;
44169;SDS011;29836;52.286;9.576;2023-12-29T13:09:43;0.88;;;0.70;;
44169;SDS011;29836;52.286;9.576;2023-12-29T13:12:10;1.50;;;0.65;;
44169;SDS011;29836;52.286;9.576;2023-12-29T13:14:37;2.85;;;0.80;;
44169;SDS011;29836;52.286;9.576;2023-12-29T13:17:06;1.15;;;0.65;;
44169;SDS011;29836;52.286;9.576;2023-12-29T13:19:37;0.88;;;0.65;;
44169;SDS011;29836;52.286;9.576;2023-12-29T13:22:15;0.85;;;0.70;;
44169;SDS011;29836;52.286;9.576;2023-12-29T13:24:44;1.23;;;0.60;;
44169;SDS011;29836;52.286;9.576;2023-12-29T13:27:10;1.38;;;0.70;;
44169;SDS011;29836;52.286;9.576;2023-12-29T13:29:37;1.10;;;0.80;;
44169;SDS011;29836;52.286;9.576;2023-12-29T13:32:14;0.90;;;0.63;;
44169;SDS011;29836;52.286;9.576;2023-12-29T13:34:47;2.28;;;0.70;;
44169;SDS011;29836;52.286;9.576;2023-12-29T13:37:36;1.63;;;0.80;;
44169;SDS011;29836;52.286;9.576;2023-12-29T13:40:26;1.83;;;0.60;;
44169;SDS011;29836;52.286;9.576;2023-12-29T13:43:02;1.77;;;0.70;;
44169;SDS011;29836;52.286;9.576;2023-12-29T13:45:28;2.83;;;1.20;;
44169;SDS011;29836;52.286;9.576;2023-12-29T13:47:55;3.28;;;0.80;;
44169;SDS011;29836;52.286;9.576;2023-12-29T13:50:22;1.20;;;0.63;;
44169;SDS011;29836;52.286;9.576;2023-12-29T13:52:49;1.35;;;0.80;;
44169;SDS011;29836;52.286;9.576;2023-12-29T13:55:21;2.30;;;0.80;;
44169;SDS011;29836;52.286;9.576;2023-12-29T13:57:48;2.42;;;1.00;;
44169;SDS011;29836;52.286;9.576;2023-12-29T14:00:15;1.83;;;0.88;;
44169;SDS011;29836;52.286;9.576;2023-12-29T14:05:44;2.55;;;0.85;;
44169;SDS011;29836;52.286;9.576;2023-12-29T14:08:33;2.10;;;1.10;;
44169;SDS011;29836;52.286;9.576;2023-12-29T14:11:08;2.75;;;0.82;;
44169;SDS011;29836;52.286;9.576;2023-12-29T14:13:34;1.00;;;0.75;;
44169;SDS011;29836;52.286;9.576;2023-12-29T14:16:00;1.50;;;1.00;;
44169;SDS011;29836;52.286;9.576;2023-12-29T14:21:31;1.98;;;1.20;;
44169;SDS011;29836;52.286;9.576;2023-12-29T14:26:34;1.30;;;0.88;;
44169;SDS011;29836;52.286;9.576;2023-12-29T14:29:07;2.63;;;0.90;;
44169;SDS011;29836;52.286;9.576;2023-12-29T14:31:37;1.65;;;0.95;;
44169;SDS011;29836;52.286;9.576;2023-12-29T14:34:04;1.90;;;0.98;;
44169;SDS011;29836;52.286;9.576;2023-12-29T14:36:31;1.80;;;0.80;;
44169;SDS011;29836;52.286;9.576;2023-12-29T14:39:00;4.78;;;1.05;;
44169;SDS011;29836;52.286;9.576;2023-12-29T14:41:27;1.67;;;1.10;;
44169;SDS011;29836;52.286;9.576;2023-12-29T14:43:53;1.75;;;1.00;;
44169;SDS011;29836;52.286;9.576;2023-12-29T14:46:19;4.03;;;1.30;;
44169;SDS011;29836;52.286;9.576;2023-12-29T14:48:45;6.78;;;1.63;;
44169;SDS011;29836;52.286;9.576;2023-12-29T14:51:11;2.17;;;1.00;;
44169;SDS011;29836;52.286;9.576;2023-12-29T14:53:37;2.80;;;1.08;;
44169;SDS011;29836;52.286;9.576;2023-12-29T14:56:03;1.20;;;0.85;;
44169;SDS011;29836;52.286;9.576;2023-12-29T14:58:28;5.18;;;1.08;;
44169;SDS011;29836;52.286;9.576;2023-12-29T15:00:56;2.95;;;1.48;;
44169;SDS011;29836;52.286;9.576;2023-12-29T15:03:21;1.63;;;0.82;;
44169;SDS011;29836;52.286;9.576;2023-12-29T15:05:48;1.85;;;0.90;;
44169;SDS011;29836;52.286;9.576;2023-12-29T15:08:14;5.68;;;0.98;;
44169;SDS011;29836;52.286;9.576;2023-12-29T15:10:39;1.92;;;1.10;;
44169;SDS011;29836;52.286;9.576;2023-12-29T15:13:05;1.98;;;0.90;;